createdAt,value
2019-03-03T00:01:02.277Z,95813.77
2019-03-03T00:03:28.742Z,95804.08
2019-03-03T00:05:55.277Z,95803.81
2019-03-03T00:08:21.812Z,95803.13
2019-03-03T00:10:48.245Z,95800.55
2019-03-03T00:13:14.680Z,95791.48
2019-03-03T00:15:41.215Z,95799.63
2019-03-03T00:18:07.853Z,95801.09
2019-03-03T00:20:34.594Z,95789.41
2019-03-03T00:23:01.130Z,95782.20
2019-03-03T00:25:27.770Z,95796.45
2019-03-03T00:27:54.204Z,95789.88
2019-03-03T00:30:20.840Z,95784.47
2019-03-03T00:32:47.377Z,95797.33
2019-03-03T00:35:14.035Z,95786.60
2019-03-03T00:37:51.408Z,95779.91
2019-03-03T00:40:25.727Z,95778.67
2019-03-03T00:42:54.002Z,95774.05
2019-03-03T00:45:31.289Z,95771.77
2019-03-03T00:48:08.857Z,95767.58
2019-03-03T00:50:37.170Z,95772.78
2019-03-03T00:53:08.385Z,95768.36
2019-03-03T00:55:36.686Z,95768.93
2019-03-03T00:58:05.475Z,95769.21
2019-03-03T01:00:42.563Z,95779.02
2019-03-03T01:03:26.192Z,95775.22
2019-03-03T01:06:04.439Z,95761.91
2019-03-03T01:08:50.330Z,95761.86
2019-03-03T01:11:28.355Z,95768.01
2019-03-03T01:13:57.657Z,95779.41
2019-03-03T01:16:41.132Z,95775.96
2019-03-03T01:19:09.409Z,95771.19
2019-03-03T01:21:40.801Z,95757.14
2019-03-03T01:24:15.049Z,95764.48
2019-03-03T01:26:41.511Z,95758.35
2019-03-03T01:29:07.943Z,95762.86
2019-03-03T01:31:34.376Z,95760.88
2019-03-03T01:34:00.913Z,95760.04
2019-03-03T01:36:27.449Z,95767.23
2019-03-03T01:38:53.882Z,95769.43
2019-03-03T01:41:20.418Z,95764.16
2019-03-03T01:43:46.852Z,95768.52
2019-03-03T01:46:13.308Z,95768.31
2019-03-03T01:48:39.821Z,95764.06
2019-03-03T01:51:06.243Z,95760.28
2019-03-03T01:53:32.688Z,95756.50
2019-03-03T01:55:59.150Z,95755.50
2019-03-03T01:58:25.661Z,95753.88
2019-03-03T02:00:52.502Z,95752.70
2019-03-03T02:03:18.934Z,95754.89
2019-03-03T02:05:45.468Z,95764.03
2019-03-03T02:08:12.006Z,95764.95
2019-03-03T02:10:38.451Z,95767.06
2019-03-03T02:13:05.076Z,95759.49
2019-03-03T02:15:31.717Z,95759.96
2019-03-03T02:17:58.234Z,95762.38
2019-03-03T02:20:24.684Z,95768.56
2019-03-03T02:22:51.529Z,95771.14
2019-03-03T02:25:18.064Z,95759.64
2019-03-03T02:27:44.501Z,95753.02
2019-03-03T02:30:17.650Z,95748.16
2019-03-03T02:32:44.227Z,95749.34
2019-03-03T02:35:10.792Z,95738.57
2019-03-03T02:37:37.299Z,95737.89
2019-03-03T02:40:07.320Z,95734.81
2019-03-03T02:42:33.749Z,95736.79
2019-03-03T02:45:00.484Z,95737.28
2019-03-03T02:47:26.924Z,95743.98
2019-03-03T02:49:53.357Z,95740.11
2019-03-03T02:52:19.797Z,95742.64
2019-03-03T02:54:46.329Z,95735.09
2019-03-03T02:57:12.967Z,95735.02
2019-03-03T02:59:39.399Z,95744.41
2019-03-03T03:02:07.631Z,95753.11
2019-03-03T03:04:34.215Z,95749.25
2019-03-03T03:07:08.709Z,95750.53
2019-03-03T03:09:37.013Z,95747.16
2019-03-03T03:12:23.318Z,95746.67
2019-03-03T03:14:54.786Z,95748.25
2019-03-03T03:17:32.056Z,95744.42
2019-03-03T03:20:00.334Z,95743.62
2019-03-03T03:22:31.723Z,95757.03
2019-03-03T03:25:06.097Z,95759.25
2019-03-03T03:27:37.344Z,95752.72
2019-03-03T03:30:08.776Z,95750.27
2019-03-03T03:32:37.074Z,95745.72
2019-03-03T03:35:07.548Z,95749.89
2019-03-03T03:37:35.865Z,95759.55
2019-03-03T03:40:17.465Z,95753.11
2019-03-03T03:42:45.743Z,95749.57
2019-03-03T03:45:20.061Z,95747.36
2019-03-03T03:47:51.327Z,95752.56
2019-03-03T03:50:25.420Z,95746.34
2019-03-03T03:52:53.699Z,95748.97
2019-03-03T03:55:22.191Z,95735.77
2019-03-03T03:57:56.729Z,95732.84
2019-03-03T04:00:25.054Z,95727.98
2019-03-03T04:03:02.473Z,95730.59
2019-03-03T04:05:33.719Z,95738.63
2019-03-03T04:08:01.994Z,95740.56
2019-03-03T04:10:33.232Z,95738.02
2019-03-03T04:13:10.487Z,95743.03
2019-03-03T04:15:41.570Z,95747.06
2019-03-03T04:18:09.855Z,95743.53
2019-03-03T04:20:44.071Z,95743.08
2019-03-03T04:23:18.245Z,95741.60
2019-03-03T04:25:49.731Z,95744.22
2019-03-03T04:28:21.173Z,95749.08
2019-03-03T04:31:06.023Z,95739.66
2019-03-03T04:33:52.346Z,95739.98
2019-03-03T04:36:20.624Z,95741.30
2019-03-03T04:38:51.971Z,95743.40
2019-03-03T04:41:23.275Z,95740.81
2019-03-03T04:43:57.845Z,95738.10
2019-03-03T04:46:44.144Z,95746.45
2019-03-03T04:49:28.907Z,95753.55
2019-03-03T04:51:57.185Z,95755.61
2019-03-03T04:54:28.450Z,95745.73
2019-03-03T04:56:59.677Z,95737.72
2019-03-03T04:59:34.103Z,95740.30
2019-03-03T05:02:11.518Z,95733.53
2019-03-03T05:04:42.736Z,95736.11
2019-03-03T05:07:20.029Z,95741.94
2019-03-03T05:10:05.095Z,95735.80
2019-03-03T05:12:42.486Z,95736.44
2019-03-03T05:15:24.075Z,95737.72
2019-03-03T05:17:58.496Z,95743.73
2019-03-03T05:20:25.031Z,95737.12
2019-03-03T05:22:51.668Z,95732.27
2019-03-03T05:25:18.246Z,95735.81
2019-03-03T05:27:44.739Z,95729.03
2019-03-03T05:30:12.811Z,95738.73
2019-03-03T05:32:39.349Z,95734.22
2019-03-03T05:35:07.107Z,95733.73
2019-03-03T05:37:33.545Z,95720.97
2019-03-03T05:39:59.978Z,95730.03
2019-03-03T05:42:26.412Z,95725.20
2019-03-03T05:44:52.948Z,95725.81
2019-03-03T05:47:19.381Z,95719.02
2019-03-03T05:49:45.874Z,95716.45
2019-03-03T05:52:12.453Z,95720.34
2019-03-03T05:54:38.989Z,95725.37
2019-03-03T05:57:05.439Z,95721.31
2019-03-03T05:59:31.959Z,95717.42
2019-03-03T06:01:58.393Z,95716.16
2019-03-03T06:04:24.929Z,95712.59
2019-03-03T06:06:51.362Z,95705.17
2019-03-03T06:09:17.797Z,95697.77
2019-03-03T06:11:44.228Z,95694.87
2019-03-03T06:14:10.662Z,95701.98
2019-03-03T06:16:37.203Z,95706.64
2019-03-03T06:19:03.631Z,95697.30
2019-03-03T06:21:30.270Z,95689.72
2019-03-03T06:23:56.809Z,95688.06
2019-03-03T06:26:23.549Z,95686.81
2019-03-03T06:28:50.084Z,95681.50
2019-03-03T06:31:16.520Z,95694.56
2019-03-03T06:33:42.953Z,95693.95
2019-03-03T06:36:09.485Z,95693.13
2019-03-03T06:38:36.022Z,95695.86
2019-03-03T06:41:02.660Z,95685.20
2019-03-03T06:43:29.196Z,95685.86
2019-03-03T06:45:55.736Z,95682.29
2019-03-03T06:48:22.166Z,95693.88
2019-03-03T06:50:48.802Z,95688.94
2019-03-03T06:53:15.543Z,95689.44
2019-03-03T06:55:42.081Z,95685.56
2019-03-03T06:58:08.513Z,95677.60
2019-03-03T07:00:34.947Z,95680.33
2019-03-03T07:03:01.487Z,95692.33
2019-03-03T07:05:28.026Z,95699.53
2019-03-03T07:07:54.456Z,95702.17
2019-03-03T07:10:20.889Z,95714.62
2019-03-03T07:12:47.322Z,95712.80
2019-03-03T07:15:16.929Z,95709.17
2019-03-03T07:17:43.463Z,95712.93
2019-03-03T07:20:11.390Z,95719.08
2019-03-03T07:22:37.868Z,95725.48
2019-03-03T07:25:07.474Z,95728.36
2019-03-03T07:27:34.329Z,95723.68
2019-03-03T07:30:00.854Z,95714.83
2019-03-03T07:32:27.290Z,95709.91
2019-03-03T07:34:53.823Z,95713.45
2019-03-03T07:37:20.483Z,95711.49
2019-03-03T07:39:46.896Z,95714.39
2019-03-03T07:42:13.351Z,95717.23
2019-03-03T07:44:40.071Z,95705.45
2019-03-03T07:47:06.711Z,95710.90
2019-03-03T07:49:33.141Z,95711.95
2019-03-03T07:52:01.631Z,95705.83
2019-03-03T07:54:28.158Z,95710.59
2019-03-03T07:56:54.799Z,95712.74
2019-03-03T07:59:21.230Z,95714.97
2019-03-03T08:01:47.971Z,95717.44
2019-03-03T08:04:14.713Z,95719.30
2019-03-03T08:06:41.352Z,95723.05
2019-03-03T08:09:07.886Z,95728.16
2019-03-03T08:11:34.422Z,95731.13
2019-03-03T08:14:00.959Z,95735.55
2019-03-03T08:16:27.499Z,95733.27
2019-03-03T08:18:53.928Z,95734.21
2019-03-03T08:21:20.362Z,95739.13
2019-03-03T08:23:46.795Z,95737.55
2019-03-03T08:26:13.329Z,95733.89
2019-03-03T08:28:40.174Z,95741.94
2019-03-03T08:31:06.607Z,95741.20
2019-03-03T08:33:33.041Z,95739.91
2019-03-03T08:35:59.584Z,95742.81
2019-03-03T08:38:26.010Z,95738.05
2019-03-03T08:40:52.448Z,95735.14
2019-03-03T08:43:26.471Z,95733.86
2019-03-03T08:45:54.733Z,95725.00
2019-03-03T08:48:29.210Z,95729.60
2019-03-03T08:51:15.734Z,95729.70
2019-03-03T08:53:56.123Z,95730.23
2019-03-03T08:56:30.131Z,95730.61
2019-03-03T08:59:16.843Z,95740.86
2019-03-03T09:01:45.116Z,95740.86
2019-03-03T09:04:25.580Z,95738.52
2019-03-03T09:07:10.631Z,95731.55
2019-03-03T09:09:40.770Z,95725.98
2019-03-03T09:12:23.895Z,95728.89
2019-03-03T09:14:52.172Z,95723.89
2019-03-03T09:17:26.737Z,95719.73
2019-03-03T09:20:04.088Z,95715.09
2019-03-03T09:22:41.482Z,95709.87
2019-03-03T09:25:26.751Z,95707.27
2019-03-03T09:28:13.317Z,95703.80
2019-03-03T09:30:53.923Z,95712.83
2019-03-03T09:33:40.225Z,95710.31
2019-03-03T09:36:08.603Z,95708.02
2019-03-03T09:38:39.617Z,95694.23
2019-03-03T09:41:10.584Z,95691.22
2019-03-03T09:43:48.176Z,95687.97
2019-03-03T09:46:16.454Z,95679.80
2019-03-03T09:48:53.845Z,95666.88
2019-03-03T09:51:22.325Z,95665.72
2019-03-03T09:54:05.976Z,95667.24
2019-03-03T09:56:37.007Z,95681.25
2019-03-03T09:59:14.088Z,95680.83
2019-03-03T10:01:51.477Z,95669.71
2019-03-03T10:04:36.235Z,95671.60
2019-03-03T10:07:17.831Z,95668.00
2019-03-03T10:09:55.119Z,95660.02
2019-03-03T10:12:23.397Z,95666.52
2019-03-03T10:14:51.676Z,95665.52
2019-03-03T10:17:32.239Z,95664.97
2019-03-03T10:20:00.520Z,95657.02
2019-03-03T10:22:28.800Z,95657.92
2019-03-03T10:25:10.039Z,95656.30
2019-03-03T10:27:39.998Z,95657.60
2019-03-03T10:30:12.156Z,95652.55
2019-03-03T10:32:43.525Z,95641.98
2019-03-03T10:35:15.774Z,95641.16
2019-03-03T10:37:56.544Z,95634.57
2019-03-03T10:40:24.822Z,95640.91
2019-03-03T10:43:09.499Z,95640.91
2019-03-03T10:45:40.933Z,95650.41
2019-03-03T10:48:11.922Z,95653.23
2019-03-03T10:50:57.045Z,95648.23
2019-03-03T10:53:25.429Z,95650.22
2019-03-03T10:56:10.545Z,95650.92
2019-03-03T10:58:47.885Z,95651.03
2019-03-03T11:01:25.176Z,95663.03
2019-03-03T11:03:53.654Z,95659.53
2019-03-03T11:06:30.944Z,95652.64
2019-03-03T11:09:11.431Z,95653.03
2019-03-03T11:11:49.102Z,95644.81
2019-03-03T11:14:17.384Z,95640.98
2019-03-03T11:16:54.872Z,95617.12
2019-03-03T11:19:29.294Z,95617.12
2019-03-03T11:22:15.900Z,95619.99
2019-03-03T11:24:56.261Z,95609.56
2019-03-03T11:27:36.722Z,95596.41
2019-03-03T11:30:16.884Z,95594.55
2019-03-03T11:32:45.361Z,95580.64
2019-03-03T11:35:22.650Z,95580.02
2019-03-03T11:38:07.704Z,95561.43
2019-03-03T11:40:52.587Z,95565.20
2019-03-03T11:43:23.620Z,95565.20
2019-03-03T11:46:00.936Z,95563.59
2019-03-03T11:48:33.803Z,95562.09
2019-03-03T11:51:02.080Z,95551.55
2019-03-03T11:53:36.514Z,95547.28
2019-03-03T11:56:05.019Z,95552.91
2019-03-03T11:58:42.474Z,95553.86
2019-03-03T12:01:10.954Z,95563.19
2019-03-03T12:03:52.544Z,95555.56
2019-03-03T12:06:38.442Z,95557.45
2019-03-03T12:09:14.084Z,95548.70
2019-03-03T12:11:48.121Z,95539.95
2019-03-03T12:14:33.265Z,95541.95
2019-03-03T12:17:06.902Z,95542.03
2019-03-03T12:19:35.144Z,95550.87
2019-03-03T12:22:03.431Z,95545.73
2019-03-03T12:24:47.160Z,95530.65
2019-03-03T12:27:15.435Z,95513.40
2019-03-03T12:29:55.694Z,95510.48
2019-03-03T12:32:26.850Z,95519.28
2019-03-03T12:34:57.882Z,95514.39
2019-03-03T12:37:31.940Z,95511.91
2019-03-03T12:40:16.610Z,95498.56
2019-03-03T12:42:44.931Z,95499.14
2019-03-03T12:45:13.316Z,95501.11
2019-03-03T12:47:47.529Z,95495.42
2019-03-03T12:50:28.495Z,95498.34
2019-03-03T12:53:03.229Z,95502.48
2019-03-03T12:55:31.607Z,95485.19
2019-03-03T12:58:02.855Z,95478.95
2019-03-03T13:00:37.151Z,95470.48
2019-03-03T13:03:11.662Z,95463.55
2019-03-03T13:05:48.880Z,95453.22
2019-03-03T13:08:26.217Z,95459.00
2019-03-03T13:11:00.739Z,95451.63
2019-03-03T13:13:41.026Z,95442.83
2019-03-03T13:16:15.166Z,95443.97
2019-03-03T13:18:43.442Z,95443.90
2019-03-03T13:21:27.080Z,95431.34
2019-03-03T13:23:55.356Z,95428.84
2019-03-03T13:26:23.633Z,95430.48
2019-03-03T13:28:55.104Z,95420.93
2019-03-03T13:31:42.103Z,95423.61
2019-03-03T13:34:27.293Z,95408.56
2019-03-03T13:36:55.551Z,95410.06
2019-03-03T13:39:29.831Z,95407.36
2019-03-03T13:41:58.150Z,95411.28
2019-03-03T13:44:26.501Z,95407.63
2019-03-03T13:46:52.964Z,95399.71
2019-03-03T13:49:19.394Z,95390.53
2019-03-03T13:51:45.838Z,95392.59
2019-03-03T13:54:12.672Z,95380.91
2019-03-03T13:56:39.311Z,95385.63
2019-03-03T13:59:05.958Z,95388.16
2019-03-03T14:01:32.692Z,95386.34
2019-03-03T14:03:59.119Z,95383.50
2019-03-03T14:06:25.654Z,95385.32
2019-03-03T14:08:52.292Z,95384.72
2019-03-03T14:11:28.967Z,95383.72
2019-03-03T14:13:55.504Z,95383.16
2019-03-03T14:16:22.041Z,95385.45
2019-03-03T14:18:48.477Z,95393.80
2019-03-03T14:21:14.913Z,95396.03
2019-03-03T14:23:41.369Z,95395.29
2019-03-03T14:26:07.990Z,95402.75
2019-03-03T14:28:34.525Z,95408.12
2019-03-03T14:31:01.049Z,95406.39
2019-03-03T14:33:27.609Z,95389.53
2019-03-03T14:35:54.120Z,95389.31
2019-03-03T14:38:20.556Z,95378.16
2019-03-03T14:40:47.194Z,95370.98
2019-03-03T14:43:13.629Z,95367.90
2019-03-03T14:45:40.163Z,95366.31
2019-03-03T14:48:06.815Z,95353.59
2019-03-03T14:50:33.667Z,95365.38
2019-03-03T14:53:00.282Z,95376.88
2019-03-03T14:55:26.921Z,95383.16
2019-03-03T14:57:53.663Z,95372.09
2019-03-03T15:00:27.080Z,95354.48
2019-03-03T15:02:54.104Z,95355.45
2019-03-03T15:05:21.155Z,95350.83
2019-03-03T15:07:47.588Z,95335.57
2019-03-03T15:10:14.125Z,95326.64
2019-03-03T15:12:40.659Z,95311.69
2019-03-03T15:15:10.474Z,95311.34
2019-03-03T15:17:37.315Z,95320.57
2019-03-03T15:20:05.739Z,95323.23
2019-03-03T15:22:32.332Z,95315.89
2019-03-03T15:24:58.868Z,95310.30
2019-03-03T15:27:25.301Z,95315.38
2019-03-03T15:29:51.838Z,95305.13
2019-03-03T15:32:18.257Z,95302.06
2019-03-03T15:34:45.114Z,95283.28
2019-03-03T15:37:12.982Z,95271.41
2019-03-03T15:39:39.807Z,95270.11
2019-03-03T15:42:06.259Z,95273.24
2019-03-03T15:44:33.517Z,95264.39
2019-03-03T15:47:00.046Z,95259.37
2019-03-03T15:49:26.583Z,95255.33
2019-03-03T15:51:53.325Z,95252.55
2019-03-03T15:54:19.760Z,95250.64
2019-03-03T15:56:46.297Z,95244.55
2019-03-03T15:59:12.730Z,95255.52
2019-03-03T16:01:39.273Z,95254.34
2019-03-03T16:04:05.698Z,95255.66
2019-03-03T16:06:32.231Z,95244.06
2019-03-03T16:08:58.665Z,95233.09
2019-03-03T16:11:25.105Z,95236.23
2019-03-03T16:13:51.534Z,95247.31
2019-03-03T16:16:18.069Z,95249.55
2019-03-03T16:18:45.134Z,95260.41
2019-03-03T16:21:11.655Z,95254.70
2019-03-03T16:23:38.090Z,95256.16
2019-03-03T16:26:04.625Z,95254.52
2019-03-03T16:28:31.055Z,95239.83
2019-03-03T16:30:57.490Z,95234.91
2019-03-03T16:33:24.692Z,95233.94
2019-03-03T16:35:51.586Z,95223.49
2019-03-03T16:38:18.020Z,95221.91
2019-03-03T16:40:46.097Z,95222.34
2019-03-03T16:43:12.832Z,95222.27
2019-03-03T16:45:39.577Z,95213.97
2019-03-03T16:48:06.418Z,95211.92
2019-03-03T16:50:32.953Z,95204.81
2019-03-03T16:52:59.694Z,95208.80
2019-03-03T16:55:26.230Z,95206.84
2019-03-03T16:57:52.775Z,95209.64
2019-03-03T17:00:25.959Z,95203.66
2019-03-03T17:02:52.389Z,95198.08
2019-03-03T17:05:21.590Z,95192.09
2019-03-03T17:07:48.023Z,95178.50
2019-03-03T17:10:14.776Z,95167.94
2019-03-03T17:12:41.298Z,95151.29
2019-03-03T17:15:13.976Z,95145.70
2019-03-03T17:17:40.727Z,95145.67
2019-03-03T17:20:08.944Z,95152.78
2019-03-03T17:22:35.841Z,95145.39
2019-03-03T17:25:04.628Z,95140.27
2019-03-03T17:27:31.167Z,95137.47
2019-03-03T17:29:57.706Z,95131.77
2019-03-03T17:32:24.439Z,95131.24
2019-03-03T17:34:51.489Z,95142.33
2019-03-03T17:37:18.230Z,95134.02
2019-03-03T17:39:44.766Z,95131.45
2019-03-03T17:42:11.301Z,95125.91
2019-03-03T17:44:37.838Z,95127.50
2019-03-03T17:47:04.374Z,95123.99
2019-03-03T17:49:30.910Z,95123.63
2019-03-03T17:51:57.447Z,95135.58
2019-03-03T17:54:23.985Z,95127.11
2019-03-03T17:56:50.521Z,95120.41
2019-03-03T17:59:17.057Z,95119.16
2019-03-03T18:01:43.496Z,95116.83
2019-03-03T18:04:10.035Z,95123.87
2019-03-03T18:06:38.945Z,95126.17
2019-03-03T18:09:06.729Z,95133.91
2019-03-03T18:11:33.320Z,95134.70
2019-03-03T18:13:59.756Z,95134.73
2019-03-03T18:16:26.389Z,95130.55
2019-03-03T18:18:53.442Z,95135.44
2019-03-03T18:21:20.999Z,95131.91
2019-03-03T18:23:47.535Z,95123.09
2019-03-03T18:26:13.986Z,95131.69
2019-03-03T18:28:40.810Z,95126.33
2019-03-03T18:31:07.347Z,95118.82
2019-03-03T18:33:33.882Z,95116.66
2019-03-03T18:36:00.522Z,95114.91
2019-03-03T18:38:27.056Z,95111.54
2019-03-03T18:40:53.593Z,95114.44
2019-03-03T18:43:20.127Z,95108.98
2019-03-03T18:45:46.664Z,95095.67
2019-03-03T18:48:13.303Z,95094.63
2019-03-03T18:50:39.840Z,95093.30
2019-03-03T18:53:06.477Z,95092.29
2019-03-03T18:55:32.932Z,95087.13
2019-03-03T18:57:59.446Z,95085.32
2019-03-03T19:00:27.774Z,95085.72
2019-03-03T19:02:54.266Z,95077.03
2019-03-03T19:05:21.000Z,95077.11
2019-03-03T19:07:48.051Z,95075.91
2019-03-03T19:10:19.651Z,95071.31
2019-03-03T19:12:46.137Z,95073.17
2019-03-03T19:15:14.927Z,95069.13
2019-03-03T19:17:41.568Z,95070.73
2019-03-03T19:20:10.972Z,95062.34
2019-03-03T19:22:37.717Z,95071.45
2019-03-03T19:25:08.517Z,95071.45
2019-03-03T19:27:34.981Z,95060.28
2019-03-03T19:30:01.823Z,95060.28
2019-03-03T19:32:28.359Z,95072.47
2019-03-03T19:34:54.999Z,95069.58
2019-03-03T19:37:21.740Z,95069.58
2019-03-03T19:39:48.172Z,95071.73
2019-03-03T19:42:14.706Z,95071.23
2019-03-03T19:44:41.243Z,95076.37
2019-03-03T19:47:08.086Z,95076.37
2019-03-03T19:49:34.523Z,95077.16
2019-03-03T19:52:01.055Z,95083.47
2019-03-03T19:54:27.796Z,95083.47
2019-03-03T19:56:54.332Z,95080.78
2019-03-03T19:59:21.178Z,95075.20
2019-03-03T20:01:47.721Z,95082.45
2019-03-03T20:04:14.248Z,95070.21
2019-03-03T20:06:40.786Z,95074.50
2019-03-03T20:09:07.936Z,95061.95
2019-03-03T20:11:34.470Z,95061.95
2019-03-03T20:14:01.213Z,95062.03
2019-03-03T20:16:27.747Z,95059.35
2019-03-03T20:18:54.283Z,95062.58
2019-03-03T20:21:22.150Z,95070.13
2019-03-03T20:23:48.586Z,95069.37
2019-03-03T20:26:15.225Z,95068.80
2019-03-03T20:28:41.757Z,95075.52
2019-03-03T20:31:08.498Z,95073.28
2019-03-03T20:33:35.036Z,95076.93
2019-03-03T20:36:01.569Z,95078.26
2019-03-03T20:38:29.539Z,95067.67
2019-03-03T20:40:55.973Z,95076.17
2019-03-03T20:43:24.253Z,95073.75
2019-03-03T20:45:50.787Z,95068.54
2019-03-03T20:48:17.339Z,95068.54
2019-03-03T20:50:43.857Z,95065.86
2019-03-03T20:53:10.501Z,95073.12
2019-03-03T20:55:37.055Z,95069.91
2019-03-03T20:58:03.773Z,95071.64
2019-03-03T21:00:32.591Z,95071.64
2019-03-03T21:02:59.646Z,95068.59
2019-03-03T21:05:26.554Z,95073.66
2019-03-03T21:07:53.480Z,95069.33
2019-03-03T21:10:23.571Z,95070.99
2019-03-03T21:12:50.122Z,95073.38
2019-03-03T21:15:16.710Z,95063.39
2019-03-03T21:17:43.235Z,95062.84
2019-03-03T21:20:13.347Z,95059.12
2019-03-03T21:22:39.888Z,95056.98
2019-03-03T21:25:08.982Z,95057.55
2019-03-03T21:27:37.257Z,95063.77
2019-03-03T21:30:07.347Z,95054.27
2019-03-03T21:32:33.811Z,95050.24
2019-03-03T21:35:00.347Z,95045.09
2019-03-03T21:37:27.087Z,95038.40
2019-03-03T21:39:53.829Z,95034.84
2019-03-03T21:42:20.263Z,95034.19
2019-03-03T21:44:46.905Z,95027.27
2019-03-03T21:47:13.333Z,95024.67
2019-03-03T21:49:39.769Z,95016.47
2019-03-03T21:52:06.306Z,95022.13
2019-03-03T21:54:32.839Z,95019.16
2019-03-03T21:56:59.376Z,95016.98
2019-03-03T21:59:25.810Z,95016.64
2019-03-03T22:01:52.346Z,95022.41
2019-03-03T22:04:19.906Z,95006.66
2019-03-03T22:06:46.441Z,95006.73
2019-03-03T22:09:13.389Z,95015.61
2019-03-03T22:11:39.925Z,95001.11
2019-03-03T22:14:06.358Z,95009.78
2019-03-03T22:16:32.896Z,94998.08
2019-03-03T22:18:59.329Z,94998.66
2019-03-03T22:21:25.749Z,94989.38
2019-03-03T22:23:52.470Z,94983.95
2019-03-03T22:26:18.958Z,94983.17
2019-03-03T22:28:45.391Z,94978.12
2019-03-03T22:31:11.819Z,94978.12
2019-03-03T22:33:38.314Z,94969.81
2019-03-03T22:36:04.878Z,94959.33
2019-03-03T22:38:31.410Z,94957.10
2019-03-03T22:40:57.946Z,94948.42
2019-03-03T22:43:24.379Z,94942.08
2019-03-03T22:45:50.915Z,94940.92
2019-03-03T22:48:17.347Z,94944.47
2019-03-03T22:50:43.780Z,94935.44
2019-03-03T22:53:10.420Z,94930.67
2019-03-03T22:55:37.468Z,94928.92
2019-03-03T22:58:03.904Z,94926.54
2019-03-03T23:00:53.178Z,94912.96
2019-03-03T23:03:35.168Z,94906.61
2019-03-03T23:06:14.192Z,94895.55
2019-03-03T23:08:59.679Z,94897.94
2019-03-03T23:11:41.882Z,94899.47
2019-03-03T23:14:14.665Z,94889.70
2019-03-03T23:16:56.767Z,94899.22
2019-03-03T23:19:42.038Z,94896.19
2019-03-03T23:22:27.415Z,94897.70
2019-03-03T23:25:27.847Z,94903.05
2019-03-03T23:27:54.279Z,94916.94
2019-03-03T23:30:20.714Z,94912.83
2019-03-03T23:32:47.147Z,94910.08
2019-03-03T23:35:13.890Z,94904.71
2019-03-03T23:37:40.320Z,94899.08
2019-03-03T23:40:06.961Z,94913.20
2019-03-03T23:42:33.597Z,94902.25
2019-03-03T23:45:00.295Z,94901.46
2019-03-03T23:47:26.771Z,94886.11
2019-03-03T23:49:53.205Z,94882.45
2019-03-03T23:52:19.639Z,94877.98
2019-03-03T23:54:46.176Z,94865.11
2019-03-03T23:57:12.608Z,94874.23
2019-03-03T23:59:39.042Z,94865.47
